KAFJ

Washington County Airport

Washington, Pennsylvania, USA
METAR KAFJ 231456Z AUTO 34009KT 10SM BKN012 OVC019 14/12 A3018 RMK AO2 SLP217 T01440122 51019
Observed Flight Rules
May-23 @ 14:56 UTC (11 minutes ago) Marginal Visual Flight Rules
Wind Visibility Clouds
340° at 9 knots 10 miles
  • Broken at 1,200' AGL
  • Overcast at 1,900' AGL
Temperatures Readings
Current 14°C / 57°F
Dewpoint 12°C / 54°F
Humidity 88%
Altimeter 30.18" Hg
Pressure 1021.7 hPa
Elevation 361
METAR KAFJ 231456Z AUTO 34009KT 10SM BKN012 OVC019 14/12 A3018 RMK AO2 SLP217 T01440122 51019
Observed Flight Rules
May-23 @ 14:56 UTC
(11 minutes ago)
MVFR
Wind Visibility
340° at 9 knots 10 miles
Clouds
  • Broken at 1,200' AGL
  • Overcast at 1,900' AGL
Temperature Dewpoint
14°C / 57°F 12°C / 54°F
Humidity Altimeter Pressure
88% 30.18" Hg 1021.7 hPa